sensor_id;sensor_type;location;lat;lon;timestamp;pressure;altitude;pressure_sealevel;temperature;humidity
5812;BME280;2932;52.400;9.558;2022-12-19T00:00:44;101659.22;;;4.65;58.43
5812;BME280;2932;52.400;9.558;2022-12-19T00:03:09;101649.03;;;4.76;58.29
5812;BME280;2932;52.400;9.558;2022-12-19T00:05:36;101660.25;;;4.79;58.24
5812;BME280;2932;52.400;9.558;2022-12-19T00:08:03;101657.88;;;4.52;58.91
5812;BME280;2932;52.400;9.558;2022-12-19T00:10:29;101664.19;;;4.48;59.44
5812;BME280;2932;52.400;9.558;2022-12-19T00:12:54;101665.25;;;4.57;59.24
5812;BME280;2932;52.400;9.558;2022-12-19T00:15:19;101655.94;;;4.63;59.12
5812;BME280;2932;52.400;9.558;2022-12-19T00:17:44;101660.84;;;4.71;58.99
5812;BME280;2932;52.400;9.558;2022-12-19T00:20:10;101655.00;;;4.83;59.06
5812;BME280;2932;52.400;9.558;2022-12-19T00:22:35;101648.13;;;4.85;59.07
5812;BME280;2932;52.400;9.558;2022-12-19T00:25:01;101651.00;;;4.60;59.75
5812;BME280;2932;52.400;9.558;2022-12-19T00:27:26;101648.75;;;4.77;59.51
5812;BME280;2932;52.400;9.558;2022-12-19T00:29:51;101644.75;;;5.03;59.53
5812;BME280;2932;52.400;9.558;2022-12-19T00:32:17;101637.19;;;4.80;59.98
5812;BME280;2932;52.400;9.558;2022-12-19T00:34:42;101638.91;;;4.71;60.36
5812;BME280;2932;52.400;9.558;2022-12-19T00:37:07;101632.34;;;4.67;60.54
5812;BME280;2932;52.400;9.558;2022-12-19T00:39:33;101635.91;;;4.67;60.87
5812;BME280;2932;52.400;9.558;2022-12-19T00:41:58;101629.84;;;4.71;60.90
5812;BME280;2932;52.400;9.558;2022-12-19T00:44:23;101630.13;;;4.74;61.29
5812;BME280;2932;52.400;9.558;2022-12-19T00:46:49;101630.84;;;4.85;61.05
5812;BME280;2932;52.400;9.558;2022-12-19T00:49:14;101630.59;;;4.81;61.31
5812;BME280;2932;52.400;9.558;2022-12-19T00:51:40;101630.00;;;4.89;61.35
5812;BME280;2932;52.400;9.558;2022-12-19T00:54:05;101629.03;;;4.70;62.10
5812;BME280;2932;52.400;9.558;2022-12-19T00:56:32;101632.63;;;4.65;62.59
5812;BME280;2932;52.400;9.558;2022-12-19T00:58:58;101634.41;;;4.85;62.74
5812;BME280;2932;52.400;9.558;2022-12-19T01:01:29;101627.28;;;4.84;62.91
5812;BME280;2932;52.400;9.558;2022-12-19T01:03:57;101621.28;;;4.82;63.76
5812;BME280;2932;52.400;9.558;2022-12-19T01:06:22;101615.78;;;4.82;63.70
5812;BME280;2932;52.400;9.558;2022-12-19T01:08:48;101608.47;;;4.73;64.24
5812;BME280;2932;52.400;9.558;2022-12-19T01:11:13;101602.22;;;4.62;64.70
5812;BME280;2932;52.400;9.558;2022-12-19T01:13:39;101615.91;;;4.67;65.27
5812;BME280;2932;52.400;9.558;2022-12-19T01:16:10;101618.06;;;4.70;65.19
5812;BME280;2932;52.400;9.558;2022-12-19T01:18:35;101612.22;;;4.82;65.02
5812;BME280;2932;52.400;9.558;2022-12-19T01:21:03;101617.50;;;4.73;65.65
5812;BME280;2932;52.400;9.558;2022-12-19T01:23:30;101614.47;;;4.80;66.09
5812;BME280;2932;52.400;9.558;2022-12-19T01:25:56;101606.88;;;4.61;66.50
5812;BME280;2932;52.400;9.558;2022-12-19T01:28:22;101605.94;;;4.81;66.36
5812;BME280;2932;52.400;9.558;2022-12-19T01:30:48;101600.56;;;4.61;66.65
5812;BME280;2932;52.400;9.558;2022-12-19T01:33:15;101592.31;;;4.66;66.80
5812;BME280;2932;52.400;9.558;2022-12-19T01:35:42;101591.19;;;4.77;66.59
5812;BME280;2932;52.400;9.558;2022-12-19T01:38:12;101575.72;;;4.91;66.05
5812;BME280;2932;52.400;9.558;2022-12-19T01:40:48;101564.91;;;4.66;66.26
5812;BME280;2932;52.400;9.558;2022-12-19T01:43:13;101564.78;;;4.86;65.87
5812;BME280;2932;52.400;9.558;2022-12-19T01:45:39;101557.22;;;4.73;65.67
5812;BME280;2932;52.400;9.558;2022-12-19T01:48:13;101564.47;;;4.93;65.31
5812;BME280;2932;52.400;9.558;2022-12-19T01:50:52;101557.94;;;4.84;65.24
5812;BME280;2932;52.400;9.558;2022-12-19T01:53:20;101564.69;;;4.57;66.22
5812;BME280;2932;52.400;9.558;2022-12-19T01:55:47;101565.47;;;4.68;65.96
5812;BME280;2932;52.400;9.558;2022-12-19T01:58:13;101546.59;;;4.61;65.96
5812;BME280;2932;52.400;9.558;2022-12-19T02:00:41;101550.91;;;4.73;66.11
5812;BME280;2932;52.400;9.558;2022-12-19T02:03:19;101543.91;;;4.46;66.37
5812;BME280;2932;52.400;9.558;2022-12-19T02:05:46;101531.28;;;4.50;66.87
5812;BME280;2932;52.400;9.558;2022-12-19T02:08:12;101535.22;;;4.39;67.04
5812;BME280;2932;52.400;9.558;2022-12-19T02:10:38;101535.16;;;4.44;66.95
5812;BME280;2932;52.400;9.558;2022-12-19T02:13:04;101522.41;;;4.24;67.64
5812;BME280;2932;52.400;9.558;2022-12-19T02:15:36;101509.84;;;4.18;67.88
5812;BME280;2932;52.400;9.558;2022-12-19T02:18:36;101501.59;;;4.23;68.21
5812;BME280;2932;52.400;9.558;2022-12-19T02:31:46;101495.94;;;4.54;68.39
5812;BME280;2932;52.400;9.558;2022-12-19T02:37:07;101500.66;;;4.43;68.85
5812;BME280;2932;52.400;9.558;2022-12-19T02:39:51;101503.06;;;4.50;68.65
5812;BME280;2932;52.400;9.558;2022-12-19T02:42:27;101510.66;;;4.63;68.41
5812;BME280;2932;52.400;9.558;2022-12-19T02:44:55;101495.59;;;4.65;68.14
5812;BME280;2932;52.400;9.558;2022-12-19T02:47:21;101485.09;;;4.78;67.54
5812;BME280;2932;52.400;9.558;2022-12-19T02:49:47;101479.66;;;4.67;68.04
5812;BME280;2932;52.400;9.558;2022-12-19T02:54:45;101464.13;;;4.58;68.10
5812;BME280;2932;52.400;9.558;2022-12-19T02:57:31;101485.03;;;4.44;68.42
5812;BME280;2932;52.400;9.558;2022-12-19T03:00:21;101471.34;;;4.44;68.33
5812;BME280;2932;52.400;9.558;2022-12-19T03:02:56;101484.72;;;4.50;67.88
5812;BME280;2932;52.400;9.558;2022-12-19T03:08:36;101466.13;;;4.42;68.37
5812;BME280;2932;52.400;9.558;2022-12-19T03:11:20;101491.38;;;4.39;68.99
5812;BME280;2932;52.400;9.558;2022-12-19T03:16:20;101482.81;;;4.46;68.60
5812;BME280;2932;52.400;9.558;2022-12-19T03:18:46;101460.63;;;4.47;68.46
5812;BME280;2932;52.400;9.558;2022-12-19T03:21:38;101463.22;;;4.28;69.04
5812;BME280;2932;52.400;9.558;2022-12-19T03:24:06;101468.19;;;4.21;69.22
5812;BME280;2932;52.400;9.558;2022-12-19T03:26:37;101461.06;;;4.20;69.31
5812;BME280;2932;52.400;9.558;2022-12-19T03:29:16;101466.75;;;4.34;69.89
5812;BME280;2932;52.400;9.558;2022-12-19T03:31:44;101456.28;;;4.41;69.42
5812;BME280;2932;52.400;9.558;2022-12-19T03:34:16;101450.59;;;4.32;69.00
5812;BME280;2932;52.400;9.558;2022-12-19T03:36:45;101476.38;;;4.71;68.82
5812;BME280;2932;52.400;9.558;2022-12-19T03:39:12;101476.28;;;4.42;69.41
5812;BME280;2932;52.400;9.558;2022-12-19T03:41:39;101438.94;;;4.51;69.61
5812;BME280;2932;52.400;9.558;2022-12-19T03:44:30;101471.72;;;4.27;69.92
5812;BME280;2932;52.400;9.558;2022-12-19T03:47:05;101451.03;;;4.45;69.66
5812;BME280;2932;52.400;9.558;2022-12-19T03:49:32;101438.13;;;4.84;68.84
5812;BME280;2932;52.400;9.558;2022-12-19T03:52:13;101436.44;;;4.59;68.80
5812;BME280;2932;52.400;9.558;2022-12-19T03:54:42;101452.19;;;4.78;68.61
5812;BME280;2932;52.400;9.558;2022-12-19T03:57:20;101458.88;;;4.61;68.94
5812;BME280;2932;52.400;9.558;2022-12-19T03:59:52;101430.38;;;4.62;69.05
5812;BME280;2932;52.400;9.558;2022-12-19T04:02:20;101421.59;;;4.65;69.09
5812;BME280;2932;52.400;9.558;2022-12-19T04:04:51;101413.06;;;4.96;68.55
5812;BME280;2932;52.400;9.558;2022-12-19T04:07:18;101410.56;;;4.71;68.97
5812;BME280;2932;52.400;9.558;2022-12-19T04:09:44;101433.97;;;4.58;70.11
5812;BME280;2932;52.400;9.558;2022-12-19T04:12:15;101416.63;;;4.67;70.23
5812;BME280;2932;52.400;9.558;2022-12-19T04:14:42;101424.44;;;5.13;69.06
5812;BME280;2932;52.400;9.558;2022-12-19T04:17:29;101414.31;;;5.09;68.74
5812;BME280;2932;52.400;9.558;2022-12-19T04:22:40;101416.63;;;4.96;69.18
5812;BME280;2932;52.400;9.558;2022-12-19T04:25:12;101409.31;;;4.87;69.32
5812;BME280;2932;52.400;9.558;2022-12-19T04:27:50;101423.47;;;4.70;69.45
5812;BME280;2932;52.400;9.558;2022-12-19T04:30:17;101393.09;;;4.90;69.15
5812;BME280;2932;52.400;9.558;2022-12-19T04:32:44;101396.72;;;4.57;69.65
5812;BME280;2932;52.400;9.558;2022-12-19T04:35:10;101377.81;;;4.84;69.19
5812;BME280;2932;52.400;9.558;2022-12-19T04:37:36;101382.13;;;5.19;68.40
5812;BME280;2932;52.400;9.558;2022-12-19T04:40:03;101391.13;;;4.96;69.05
5812;BME280;2932;52.400;9.558;2022-12-19T04:42:28;101382.63;;;4.97;68.71
5812;BME280;2932;52.400;9.558;2022-12-19T04:44:53;101367.19;;;5.07;68.90
5812;BME280;2932;52.400;9.558;2022-12-19T04:47:19;101358.59;;;5.13;68.63
5812;BME280;2932;52.400;9.558;2022-12-19T04:49:44;101366.66;;;5.05;69.17
5812;BME280;2932;52.400;9.558;2022-12-19T04:52:12;101364.78;;;5.00;69.46
5812;BME280;2932;52.400;9.558;2022-12-19T04:54:38;101349.66;;;5.26;69.00
5812;BME280;2932;52.400;9.558;2022-12-19T04:57:03;101349.19;;;4.95;69.97
5812;BME280;2932;52.400;9.558;2022-12-19T04:59:28;101338.94;;;5.06;69.98
5812;BME280;2932;52.400;9.558;2022-12-19T05:01:54;101344.72;;;5.05;70.25
5812;BME280;2932;52.400;9.558;2022-12-19T05:04:19;101339.34;;;5.18;70.16
5812;BME280;2932;52.400;9.558;2022-12-19T05:06:44;101334.34;;;5.44;69.63
5812;BME280;2932;52.400;9.558;2022-12-19T05:09:10;101318.38;;;5.27;69.01
5812;BME280;2932;52.400;9.558;2022-12-19T05:11:36;101326.44;;;5.19;70.18
5812;BME280;2932;52.400;9.558;2022-12-19T05:14:01;101318.81;;;5.16;70.37
5812;BME280;2932;52.400;9.558;2022-12-19T05:16:27;101319.63;;;5.16;70.49
5812;BME280;2932;52.400;9.558;2022-12-19T05:18:52;101319.88;;;5.20;70.73
5812;BME280;2932;52.400;9.558;2022-12-19T05:21:18;101326.53;;;4.85;71.67
5812;BME280;2932;52.400;9.558;2022-12-19T05:23:44;101330.31;;;5.18;71.34
5812;BME280;2932;52.400;9.558;2022-12-19T05:26:10;101306.63;;;5.22;71.56
5812;BME280;2932;52.400;9.558;2022-12-19T05:28:35;101303.91;;;5.22;71.47
5812;BME280;2932;52.400;9.558;2022-12-19T05:31:05;101326.09;;;5.01;72.05
5812;BME280;2932;52.400;9.558;2022-12-19T05:33:31;101305.97;;;5.11;71.64
5812;BME280;2932;52.400;9.558;2022-12-19T05:35:56;101308.41;;;5.13;71.91
5812;BME280;2932;52.400;9.558;2022-12-19T05:38:22;101305.41;;;5.33;71.42
5812;BME280;2932;52.400;9.558;2022-12-19T05:40:47;101313.31;;;5.58;71.06
5812;BME280;2932;52.400;9.558;2022-12-19T05:43:12;101307.38;;;5.51;71.01
5812;BME280;2932;52.400;9.558;2022-12-19T05:45:38;101295.66;;;5.46;71.10
5812;BME280;2932;52.400;9.558;2022-12-19T05:48:04;101301.25;;;5.35;71.18
5812;BME280;2932;52.400;9.558;2022-12-19T05:50:29;101297.19;;;5.33;71.57
5812;BME280;2932;52.400;9.558;2022-12-19T05:52:55;101287.84;;;5.34;72.10
5812;BME280;2932;52.400;9.558;2022-12-19T05:55:20;101286.47;;;5.13;73.22
5812;BME280;2932;52.400;9.558;2022-12-19T05:57:45;101278.03;;;5.28;73.79
5812;BME280;2932;52.400;9.558;2022-12-19T06:00:11;101275.31;;;5.47;73.61
5812;BME280;2932;52.400;9.558;2022-12-19T06:02:36;101278.94;;;5.42;73.38
5812;BME280;2932;52.400;9.558;2022-12-19T06:05:02;101283.84;;;5.45;73.76
5812;BME280;2932;52.400;9.558;2022-12-19T06:07:27;101272.78;;;5.69;73.66
5812;BME280;2932;52.400;9.558;2022-12-19T06:09:54;101275.16;;;5.38;73.98
5812;BME280;2932;52.400;9.558;2022-12-19T06:12:19;101272.78;;;5.31;73.45
5812;BME280;2932;52.400;9.558;2022-12-19T06:14:44;101264.31;;;5.28;73.08
5812;BME280;2932;52.400;9.558;2022-12-19T06:17:10;101255.44;;;5.17;73.39
5812;BME280;2932;52.400;9.558;2022-12-19T06:19:35;101264.72;;;4.97;73.46
5812;BME280;2932;52.400;9.558;2022-12-19T06:22:01;101260.31;;;5.20;73.53
5812;BME280;2932;52.400;9.558;2022-12-19T06:24:26;101260.09;;;5.17;73.28
5812;BME280;2932;52.400;9.558;2022-12-19T06:26:51;101248.66;;;5.10;73.60
5812;BME280;2932;52.400;9.558;2022-12-19T06:29:16;101256.78;;;5.20;73.82
5812;BME280;2932;52.400;9.558;2022-12-19T06:31:42;101257.47;;;5.07;74.19
5812;BME280;2932;52.400;9.558;2022-12-19T06:34:11;101259.00;;;5.18;74.02
5812;BME280;2932;52.400;9.558;2022-12-19T06:36:36;101260.09;;;5.17;73.99
5812;BME280;2932;52.400;9.558;2022-12-19T06:39:03;101253.41;;;5.04;74.86
5812;BME280;2932;52.400;9.558;2022-12-19T06:41:29;101256.97;;;5.05;74.63
5812;BME280;2932;52.400;9.558;2022-12-19T06:44:14;101249.25;;;5.07;74.70
5812;BME280;2932;52.400;9.558;2022-12-19T06:46:40;101249.25;;;5.07;74.85
5812;BME280;2932;52.400;9.558;2022-12-19T06:49:07;101252.22;;;5.10;74.84
5812;BME280;2932;52.400;9.558;2022-12-19T06:51:32;101247.84;;;4.85;75.81
5812;BME280;2932;52.400;9.558;2022-12-19T06:53:58;101263.97;;;4.92;76.04
5812;BME280;2932;52.400;9.558;2022-12-19T06:56:23;101259.41;;;5.06;76.00
5812;BME280;2932;52.400;9.558;2022-12-19T06:58:49;101285.84;;;4.97;76.43
5812;BME280;2932;52.400;9.558;2022-12-19T07:01:34;101269.84;;;5.04;76.47
5812;BME280;2932;52.400;9.558;2022-12-19T07:04:02;101274.53;;;5.22;76.54
5812;BME280;2932;52.400;9.558;2022-12-19T07:06:28;101275.53;;;5.31;76.22
5812;BME280;2932;52.400;9.558;2022-12-19T07:08:53;101258.84;;;5.28;76.38
5812;BME280;2932;52.400;9.558;2022-12-19T07:11:18;101263.91;;;5.40;76.40
5812;BME280;2932;52.400;9.558;2022-12-19T07:13:44;101264.13;;;5.43;76.38
5812;BME280;2932;52.400;9.558;2022-12-19T07:16:09;101271.34;;;5.58;76.42
5812;BME280;2932;52.400;9.558;2022-12-19T07:18:37;101260.69;;;5.32;77.02
5812;BME280;2932;52.400;9.558;2022-12-19T07:21:05;101267.31;;;5.50;77.01
5812;BME280;2932;52.400;9.558;2022-12-19T07:23:33;101251.75;;;5.46;76.67
5812;BME280;2932;52.400;9.558;2022-12-19T07:25:59;101255.47;;;5.55;76.95
5812;BME280;2932;52.400;9.558;2022-12-19T07:28:25;101250.25;;;5.34;77.59
5812;BME280;2932;52.400;9.558;2022-12-19T07:30:50;101255.56;;;5.26;78.24
5812;BME280;2932;52.400;9.558;2022-12-19T07:33:16;101263.28;;;5.24;78.05
5812;BME280;2932;52.400;9.558;2022-12-19T07:35:41;101248.94;;;5.51;77.75
5812;BME280;2932;52.400;9.558;2022-12-19T07:38:06;101251.81;;;5.41;77.95
5812;BME280;2932;52.400;9.558;2022-12-19T07:40:33;101252.78;;;5.50;78.01
5812;BME280;2932;52.400;9.558;2022-12-19T07:43:00;101256.13;;;5.47;78.04
5812;BME280;2932;52.400;9.558;2022-12-19T07:45:26;101257.91;;;5.56;77.80
5812;BME280;2932;52.400;9.558;2022-12-19T07:47:51;101247.66;;;5.99;77.29
5812;BME280;2932;52.400;9.558;2022-12-19T07:50:16;101247.25;;;5.68;77.32
5812;BME280;2932;52.400;9.558;2022-12-19T07:52:41;101247.75;;;5.57;77.49
5812;BME280;2932;52.400;9.558;2022-12-19T07:55:07;101251.56;;;5.75;77.60
5812;BME280;2932;52.400;9.558;2022-12-19T07:57:32;101253.66;;;5.83;77.36
5812;BME280;2932;52.400;9.558;2022-12-19T07:59:58;101253.34;;;5.65;77.93
5812;BME280;2932;52.400;9.558;2022-12-19T08:02:23;101254.69;;;5.68;77.84
5812;BME280;2932;52.400;9.558;2022-12-19T08:04:48;101250.00;;;5.87;77.87
5812;BME280;2932;52.400;9.558;2022-12-19T08:07:15;101260.41;;;5.72;77.90
5812;BME280;2932;52.400;9.558;2022-12-19T08:09:40;101255.72;;;5.72;78.27
5812;BME280;2932;52.400;9.558;2022-12-19T08:12:05;101256.91;;;5.28;79.44
5812;BME280;2932;52.400;9.558;2022-12-19T08:14:31;101236.13;;;5.22;79.82
5812;BME280;2932;52.400;9.558;2022-12-19T08:16:56;101242.44;;;5.23;79.95
5812;BME280;2932;52.400;9.558;2022-12-19T08:19:21;101238.09;;;5.41;79.71
5812;BME280;2932;52.400;9.558;2022-12-19T08:21:47;101241.50;;;5.51;79.26
5812;BME280;2932;52.400;9.558;2022-12-19T08:24:12;101246.41;;;5.54;79.46
5812;BME280;2932;52.400;9.558;2022-12-19T08:26:37;101246.16;;;5.69;78.73
5812;BME280;2932;52.400;9.558;2022-12-19T08:29:03;101238.28;;;5.63;78.55
5812;BME280;2932;52.400;9.558;2022-12-19T08:31:28;101241.94;;;5.77;78.36
5812;BME280;2932;52.400;9.558;2022-12-19T08:33:55;101246.69;;;5.90;78.28
5812;BME280;2932;52.400;9.558;2022-12-19T08:36:24;101251.13;;;5.86;78.49
5812;BME280;2932;52.400;9.558;2022-12-19T08:38:50;101228.72;;;5.60;78.83
5812;BME280;2932;52.400;9.558;2022-12-19T08:41:15;101235.03;;;5.80;78.86
5812;BME280;2932;52.400;9.558;2022-12-19T08:43:42;101231.97;;;5.81;78.83
5812;BME280;2932;52.400;9.558;2022-12-19T08:46:08;101227.09;;;5.78;78.74
5812;BME280;2932;52.400;9.558;2022-12-19T08:48:35;101220.78;;;5.78;79.00
5812;BME280;2932;52.400;9.558;2022-12-19T08:51:05;101212.84;;;5.95;78.55
5812;BME280;2932;52.400;9.558;2022-12-19T08:53:33;101215.19;;;6.01;78.25
5812;BME280;2932;52.400;9.558;2022-12-19T08:56:10;101213.75;;;6.04;77.99
5812;BME280;2932;52.400;9.558;2022-12-19T08:58:39;101211.28;;;6.21;77.61
5812;BME280;2932;52.400;9.558;2022-12-19T09:01:06;101224.31;;;6.29;77.71
5812;BME280;2932;52.400;9.558;2022-12-19T09:03:35;101214.66;;;6.46;77.05
5812;BME280;2932;52.400;9.558;2022-12-19T09:06:08;101209.44;;;6.17;77.76
5812;BME280;2932;52.400;9.558;2022-12-19T09:08:34;101204.44;;;6.19;77.95
5812;BME280;2932;52.400;9.558;2022-12-19T09:11:05;101197.88;;;6.01;78.42
5812;BME280;2932;52.400;9.558;2022-12-19T09:13:31;101202.72;;;6.23;78.11
5812;BME280;2932;52.400;9.558;2022-12-19T09:18:28;101187.09;;;6.37;78.07
5812;BME280;2932;52.400;9.558;2022-12-19T09:20:54;101188.81;;;6.33;77.80
5812;BME280;2932;52.400;9.558;2022-12-19T09:23:21;101193.91;;;6.53;77.63
5812;BME280;2932;52.400;9.558;2022-12-19T09:25:48;101195.03;;;6.39;77.58
5812;BME280;2932;52.400;9.558;2022-12-19T09:28:13;101191.75;;;6.50;77.49
5812;BME280;2932;52.400;9.558;2022-12-19T09:30:39;101189.53;;;6.39;78.02
5812;BME280;2932;52.400;9.558;2022-12-19T09:33:05;101190.94;;;6.50;78.00
5812;BME280;2932;52.400;9.558;2022-12-19T09:35:30;101184.75;;;6.58;77.87
5812;BME280;2932;52.400;9.558;2022-12-19T09:37:55;101187.19;;;6.59;77.87
5812;BME280;2932;52.400;9.558;2022-12-19T09:40:21;101180.56;;;6.74;77.60
5812;BME280;2932;52.400;9.558;2022-12-19T09:45:32;101182.25;;;6.97;77.44
5812;BME280;2932;52.400;9.558;2022-12-19T09:48:01;101184.81;;;6.94;77.24
5812;BME280;2932;52.400;9.558;2022-12-19T09:53:04;101189.00;;;6.91;77.59
5812;BME280;2932;52.400;9.558;2022-12-19T09:55:34;101184.59;;;6.90;77.92
5812;BME280;2932;52.400;9.558;2022-12-19T10:00:56;101174.72;;;6.89;78.26
5812;BME280;2932;52.400;9.558;2022-12-19T10:03:26;101173.41;;;7.00;77.95
5812;BME280;2932;52.400;9.558;2022-12-19T10:06:19;101166.97;;;7.05;77.82
5812;BME280;2932;52.400;9.558;2022-12-19T10:08:46;101170.84;;;6.90;79.24
5812;BME280;2932;52.400;9.558;2022-12-19T10:21:48;101167.06;;;7.14;79.24
5812;BME280;2932;52.400;9.558;2022-12-19T10:36:09;101132.22;;;7.09;80.17
5812;BME280;2932;52.400;9.558;2022-12-19T10:38:41;101140.06;;;7.38;79.53
5812;BME280;2932;52.400;9.558;2022-12-19T10:41:20;101128.41;;;7.63;79.21
5812;BME280;2932;52.400;9.558;2022-12-19T10:44:05;101138.59;;;7.63;78.75
5812;BME280;2932;52.400;9.558;2022-12-19T10:46:43;101128.72;;;7.62;78.63
5812;BME280;2932;52.400;9.558;2022-12-19T10:49:14;101107.88;;;7.69;78.48
5812;BME280;2932;52.400;9.558;2022-12-19T10:51:42;101114.31;;;7.65;78.34
5812;BME280;2932;52.400;9.558;2022-12-19T10:54:15;101110.44;;;7.88;77.94
5812;BME280;2932;52.400;9.558;2022-12-19T10:56:42;101113.00;;;7.62;78.45
5812;BME280;2932;52.400;9.558;2022-12-19T10:59:15;101110.31;;;7.71;78.21
5812;BME280;2932;52.400;9.558;2022-12-19T11:01:41;101109.56;;;7.79;78.29
5812;BME280;2932;52.400;9.558;2022-12-19T11:04:19;101110.47;;;7.97;78.07
5812;BME280;2932;52.400;9.558;2022-12-19T11:07:19;101116.50;;;7.77;78.26
5812;BME280;2932;52.400;9.558;2022-12-19T11:09:44;101123.44;;;7.96;77.59
5812;BME280;2932;52.400;9.558;2022-12-19T11:12:15;101113.69;;;7.68;78.49
5812;BME280;2932;52.400;9.558;2022-12-19T11:14:52;101108.56;;;7.75;77.79
5812;BME280;2932;52.400;9.558;2022-12-19T11:19:56;101105.88;;;7.84;77.92
5812;BME280;2932;52.400;9.558;2022-12-19T11:22:28;101099.41;;;7.88;77.97
5812;BME280;2932;52.400;9.558;2022-12-19T11:24:54;101095.97;;;7.83;77.58
5812;BME280;2932;52.400;9.558;2022-12-19T11:27:40;101106.97;;;7.52;78.69
5812;BME280;2932;52.400;9.558;2022-12-19T11:30:16;101102.09;;;7.49;79.32
5812;BME280;2932;52.400;9.558;2022-12-19T11:32:44;101098.72;;;7.52;79.38
5812;BME280;2932;52.400;9.558;2022-12-19T11:35:18;101091.94;;;7.89;78.38
5812;BME280;2932;52.400;9.558;2022-12-19T11:37:57;101088.94;;;7.99;77.89
5812;BME280;2932;52.400;9.558;2022-12-19T11:40:41;101096.44;;;8.16;77.39
5812;BME280;2932;52.400;9.558;2022-12-19T11:43:17;101091.91;;;8.20;77.42
5812;BME280;2932;52.400;9.558;2022-12-19T11:54:08;101082.97;;;8.14;77.56
5812;BME280;2932;52.400;9.558;2022-12-19T11:56:36;101080.63;;;8.30;77.04
5812;BME280;2932;52.400;9.558;2022-12-19T12:01:56;101082.94;;;8.37;77.00
5812;BME280;2932;52.400;9.558;2022-12-19T12:06:58;101069.03;;;8.59;76.40
5812;BME280;2932;52.400;9.558;2022-12-19T12:12:24;101075.69;;;8.66;75.80
5812;BME280;2932;52.400;9.558;2022-12-19T12:20:39;101066.06;;;8.38;76.59
5812;BME280;2932;52.400;9.558;2022-12-19T12:26:19;101065.44;;;8.50;76.27
5812;BME280;2932;52.400;9.558;2022-12-19T12:29:00;101068.19;;;8.50;76.09
5812;BME280;2932;52.400;9.558;2022-12-19T12:34:12;101076.78;;;8.40;76.50
5812;BME280;2932;52.400;9.558;2022-12-19T12:36:52;101070.13;;;8.49;76.16
5812;BME280;2932;52.400;9.558;2022-12-19T12:44:57;101070.50;;;8.82;75.60
5812;BME280;2932;52.400;9.558;2022-12-19T12:47:27;101071.91;;;8.45;76.39
5812;BME280;2932;52.400;9.558;2022-12-19T12:49:58;101071.63;;;8.64;76.25
5812;BME280;2932;52.400;9.558;2022-12-19T12:52:44;101069.53;;;8.61;75.91
5812;BME280;2932;52.400;9.558;2022-12-19T12:55:36;101068.53;;;8.57;76.26
5812;BME280;2932;52.400;9.558;2022-12-19T12:58:05;101066.13;;;8.64;75.92
5812;BME280;2932;52.400;9.558;2022-12-19T13:00:32;101069.06;;;8.67;75.87
5812;BME280;2932;52.400;9.558;2022-12-19T13:03:05;101080.34;;;8.49;76.42
5812;BME280;2932;52.400;9.558;2022-12-19T13:05:50;101079.13;;;8.72;76.02
5812;BME280;2932;52.400;9.558;2022-12-19T13:08:30;101062.06;;;8.70;75.65
5812;BME280;2932;52.400;9.558;2022-12-19T13:10:59;101087.38;;;8.63;75.49
5812;BME280;2932;52.400;9.558;2022-12-19T13:19:30;101074.75;;;8.88;74.44
5812;BME280;2932;52.400;9.558;2022-12-19T13:32:22;101062.75;;;8.76;74.83
5812;BME280;2932;52.400;9.558;2022-12-19T13:34:53;101059.16;;;8.92;74.80
5812;BME280;2932;52.400;9.558;2022-12-19T13:37:29;101072.78;;;8.89;74.63
5812;BME280;2932;52.400;9.558;2022-12-19T13:42:23;101074.41;;;8.73;75.20
5812;BME280;2932;52.400;9.558;2022-12-19T13:45:13;101079.91;;;8.64;75.72
5812;BME280;2932;52.400;9.558;2022-12-19T13:47:42;101083.16;;;8.83;75.21
5812;BME280;2932;52.400;9.558;2022-12-19T13:50:29;101083.81;;;8.80;75.01
5812;BME280;2932;52.400;9.558;2022-12-19T13:52:57;101076.69;;;8.88;74.77
5812;BME280;2932;52.400;9.558;2022-12-19T13:55:23;101086.59;;;8.72;75.31
5812;BME280;2932;52.400;9.558;2022-12-19T13:57:52;101093.34;;;8.48;76.54
5812;BME280;2932;52.400;9.558;2022-12-19T14:00:21;101082.38;;;9.09;75.64
5812;BME280;2932;52.400;9.558;2022-12-19T14:02:53;101075.22;;;8.82;76.51
5812;BME280;2932;52.400;9.558;2022-12-19T14:07:57;101059.97;;;8.76;76.53
5812;BME280;2932;52.400;9.558;2022-12-19T14:10:33;101060.63;;;8.73;76.62
5812;BME280;2932;52.400;9.558;2022-12-19T14:13:02;101046.94;;;8.50;77.60
5812;BME280;2932;52.400;9.558;2022-12-19T14:15:47;101055.09;;;8.81;77.00
5812;BME280;2932;52.400;9.558;2022-12-19T14:18:31;101043.75;;;9.09;76.02
5812;BME280;2932;52.400;9.558;2022-12-19T14:21:26;101040.44;;;10.34;78.54
5812;BME280;2932;52.400;9.558;2022-12-19T14:24:21;101042.09;;;11.19;77.09
5812;BME280;2932;52.400;9.558;2022-12-19T14:27:12;101049.06;;;10.62;71.54
5812;BME280;2932;52.400;9.558;2022-12-19T14:29:45;101040.72;;;10.03;72.78
5812;BME280;2932;52.400;9.558;2022-12-19T14:32:14;101039.34;;;9.89;73.10
5812;BME280;2932;52.400;9.558;2022-12-19T14:34:41;101038.50;;;9.42;74.49
5812;BME280;2932;52.400;9.558;2022-12-19T14:37:26;101046.13;;;9.36;75.17
5812;BME280;2932;52.400;9.558;2022-12-19T14:39:57;101047.66;;;9.08;75.78
5812;BME280;2932;52.400;9.558;2022-12-19T14:42:22;101045.03;;;9.02;76.05
5812;BME280;2932;52.400;9.558;2022-12-19T14:47:58;101037.41;;;8.99;76.30
5812;BME280;2932;52.400;9.558;2022-12-19T14:50:35;101037.41;;;8.99;76.33
5812;BME280;2932;52.400;9.558;2022-12-19T14:53:13;101028.66;;;8.97;76.05
5812;BME280;2932;52.400;9.558;2022-12-19T14:55:40;101031.41;;;9.15;75.45
5812;BME280;2932;52.400;9.558;2022-12-19T14:58:07;101036.91;;;8.80;75.91
5812;BME280;2932;52.400;9.558;2022-12-19T15:00:45;101033.34;;;9.06;75.14
5812;BME280;2932;52.400;9.558;2022-12-19T15:03:24;101021.78;;;9.21;74.90
5812;BME280;2932;52.400;9.558;2022-12-19T15:05:51;101027.63;;;9.28;74.32
5812;BME280;2932;52.400;9.558;2022-12-19T15:08:31;101023.41;;;9.39;74.17
5812;BME280;2932;52.400;9.558;2022-12-19T15:11:02;101035.78;;;9.16;74.55
5812;BME280;2932;52.400;9.558;2022-12-19T15:13:54;101021.00;;;9.12;74.97
5812;BME280;2932;52.400;9.558;2022-12-19T15:16:31;101021.50;;;9.05;75.02
5812;BME280;2932;52.400;9.558;2022-12-19T15:18:59;101022.63;;;9.13;75.02
5812;BME280;2932;52.400;9.558;2022-12-19T15:21:25;101030.75;;;9.09;75.25
5812;BME280;2932;52.400;9.558;2022-12-19T15:23:51;101037.56;;;9.03;74.96
5812;BME280;2932;52.400;9.558;2022-12-19T15:26:35;101029.63;;;9.19;74.64
5812;BME280;2932;52.400;9.558;2022-12-19T15:29:11;101036.13;;;9.14;74.75
5812;BME280;2932;52.400;9.558;2022-12-19T15:31:42;101020.38;;;8.97;74.25
5812;BME280;2932;52.400;9.558;2022-12-19T15:36:46;101016.06;;;9.52;72.44